Time;durP1;ratioP1;P1;durP2;ratioP2;P2;SDS_P1;SDS_P2;PMS_P1;PMS_P2;Temp;Humidity;BMP_temperature;BMP_pressure;BME280_temperature;BME280_humidity;BME280_pressure;Samples;Min_cycle;Max_cycle;Signal;HPM_P1;HPM_P2
2024/04/14 00:00:59;;;;;;;2.33;1.20;;;17.70;95.90;;;;;;5417621;26;19995;-51
2024/04/14 00:03:25;;;;;;;3.00;1.42;;;17.60;95.90;;;;;;5417400;26;19995;-51
2024/04/14 00:05:51;;;;;;;6.18;2.00;;;17.70;95.10;;;;;;5417577;26;20085;-47
2024/04/14 00:08:17;;;;;;;6.72;1.90;;;17.60;95.60;;;;;;5416708;26;20333;-51
2024/04/14 00:10:43;;;;;;;5.03;1.83;;;17.40;95.50;;;;;;5417484;26;20010;-49
2024/04/14 00:13:09;;;;;;;5.68;1.65;;;17.30;95.30;;;;;;5417561;26;20325;-50
2024/04/14 00:15:35;;;;;;;2.70;1.20;;;17.30;94.80;;;;;;5415828;26;20456;-51
2024/04/14 00:18:01;;;;;;;4.53;1.48;;;17.30;94.20;;;;;;5416984;26;20513;-50
2024/04/14 00:20:28;;;;;;;3.80;1.30;;;17.20;94.30;;;;;;5417586;26;20046;-51
2024/04/14 00:22:54;;;;;;;3.53;1.20;;;17.10;94.10;;;;;;5416771;26;20003;-51
2024/04/14 00:25:20;;;;;;;5.15;1.45;;;17.20;93.80;;;;;;5417601;26;20360;-52
2024/04/14 00:27:46;;;;;;;2.90;1.27;;;17.10;94.30;;;;;;5416835;26;20513;-52
2024/04/14 00:30:12;;;;;;;3.70;0.85;;;17.00;94.50;;;;;;5415353;26;20068;-47
2024/04/14 00:32:39;;;;;;;2.42;0.98;;;17.00;93.90;;;;;;5415789;26;20376;-50
2024/04/14 00:35:05;;;;;;;4.18;1.55;;;16.80;94.00;;;;;;5417197;26;19995;-48
2024/04/14 00:37:31;;;;;;;2.70;0.95;;;16.70;94.40;;;;;;5414741;26;20003;-51
2024/04/14 00:39:57;;;;;;;3.35;1.00;;;16.70;94.00;;;;;;5415713;26;20020;-51
2024/04/14 00:42:23;;;;;;;4.78;1.20;;;16.60;94.60;;;;;;5417394;26;20069;-52
2024/04/14 00:44:49;;;;;;;4.15;1.52;;;16.50;95.20;;;;;;5417152;26;20348;-48
2024/04/14 00:47:16;;;;;;;2.17;1.00;;;16.40;95.00;;;;;;5416415;26;20011;-49
2024/04/14 00:49:42;;;;;;;2.05;1.00;;;16.30;95.00;;;;;;5417138;26;20410;-48
2024/04/14 00:52:10;;;;;;;3.17;1.13;;;16.20;95.20;;;;;;5416882;26;20064;-50
2024/04/14 00:54:37;;;;;;;6.43;1.70;;;16.10;95.50;;;;;;5416899;26;19995;-51
2024/04/14 00:57:04;;;;;;;3.92;1.50;;;16.00;95.60;;;;;;5417360;26;20007;-51
2024/04/14 00:59:32;;;;;;;6.72;1.42;;;16.00;95.90;;;;;;5414922;26;20068;-47
2024/04/14 01:01:58;;;;;;;5.63;1.30;;;15.90;96.00;;;;;;5417258;26;20329;-47
2024/04/14 01:04:24;;;;;;;4.00;1.35;;;15.80;96.10;;;;;;5416864;26;19991;-47
2024/04/14 01:06:50;;;;;;;5.10;1.05;;;15.90;96.00;;;;;;5416815;26;19991;-47
2024/04/14 01:09:17;;;;;;;3.15;0.95;;;16.00;95.70;;;;;;5416024;26;20003;-48
2024/04/14 01:11:43;;;;;;;1.77;1.00;;;15.90;96.40;;;;;;5417118;26;19995;-48
2024/04/14 01:14:11;;;;;;;2.53;1.02;;;15.90;96.20;;;;;;5416612;26;19995;-49
2024/04/14 01:16:37;;;;;;;4.25;1.10;;;15.80;96.40;;;;;;5416920;26;20004;-47
2024/04/14 01:19:04;;;;;;;3.42;1.10;;;15.80;96.00;;;;;;5416223;26;19992;-47
2024/04/14 01:21:30;;;;;;;5.57;1.30;;;15.80;95.90;;;;;;5415494;26;19991;-50
2024/04/14 01:23:56;;;;;;;4.63;1.00;;;15.70;96.10;;;;;;5416785;26;20037;-49
2024/04/14 01:26:22;;;;;;;2.45;1.20;;;15.70;96.00;;;;;;5416482;26;19991;-48
2024/04/14 01:28:48;;;;;;;4.72;1.13;;;15.60;96.40;;;;;;5415828;26;20477;-47
2024/04/14 01:31:14;;;;;;;3.63;1.00;;;15.50;96.80;;;;;;5416534;26;20440;-48
2024/04/14 01:33:41;;;;;;;3.00;1.20;;;15.40;97.10;;;;;;5416543;26;20068;-49
2024/04/14 01:36:07;;;;;;;2.65;1.00;;;15.40;97.00;;;;;;5415099;26;20065;-47
2024/04/14 01:38:34;;;;;;;3.30;1.20;;;15.40;96.70;;;;;;5415901;26;20007;-47
2024/04/14 01:41:00;;;;;;;3.95;1.10;;;15.30;97.30;;;;;;5416747;26;20003;-47
2024/04/14 01:43:27;;;;;;;3.40;1.00;;;15.30;97.10;;;;;;5416537;26;20038;-47
2024/04/14 01:45:53;;;;;;;2.00;0.90;;;15.30;97.30;;;;;;5416418;26;20003;-47
2024/04/14 01:48:19;;;;;;;3.47;1.10;;;15.20;97.70;;;;;;5415520;26;19992;-47
2024/04/14 01:50:46;;;;;;;2.38;1.00;;;15.20;97.70;;;;;;5413896;26;19996;-47
2024/04/14 01:53:12;;;;;;;2.38;1.10;;;15.10;98.10;;;;;;5416374;26;20002;-46
2024/04/14 01:55:42;;;;;;;6.15;1.88;;;15.00;98.10;;;;;;5416050;26;20065;-46
2024/04/14 01:58:08;;;;;;;5.55;1.85;;;15.00;98.90;;;;;;5415256;26;20692;-51
2024/04/14 02:00:34;;;;;;;3.47;1.60;;;14.90;98.80;;;;;;5416113;26;19995;-49
2024/04/14 02:03:00;;;;;;;2.20;1.20;;;14.90;98.90;;;;;;5384583;26;20064;-52
2024/04/14 02:05:26;;;;;;;5.05;1.35;;;15.00;98.90;;;;;;5414339;26;20006;-50
2024/04/14 02:07:53;;;;;;;2.60;1.00;;;15.00;98.90;;;;;;5415450;26;19992;-47
2024/04/14 02:10:19;;;;;;;8.95;1.40;;;15.00;99.30;;;;;;5415606;26;19992;-49
2024/04/14 02:12:45;;;;;;;4.13;1.27;;;15.00;98.80;;;;;;5416100;26;20064;-47
2024/04/14 02:15:11;;;;;;;3.53;1.20;;;15.10;98.60;;;;;;5415753;26;19995;-50
2024/04/14 02:17:37;;;;;;;3.38;1.23;;;15.10;98.60;;;;;;5414920;26;20390;-49
2024/04/14 02:20:04;;;;;;;5.53;1.30;;;15.10;98.80;;;;;;5416004;26;19991;-50
2024/04/14 02:22:30;;;;;;;4.72;1.20;;;15.00;99.20;;;;;;5415847;26;19996;-49
2024/04/14 02:24:56;;;;;;;4.72;1.95;;;15.00;99.10;;;;;;5413942;26;20034;-51
2024/04/14 02:27:22;;;;;;;4.18;1.10;;;14.90;99.40;;;;;;5413229;26;20007;-50
2024/04/14 02:29:48;;;;;;;2.95;1.10;;;14.80;99.90;;;;;;5415489;26;19991;-50
2024/04/14 02:32:14;;;;;;;2.30;1.02;;;14.80;99.90;;;;;;5415580;26;20068;-50
2024/04/14 02:34:40;;;;;;;4.50;1.40;;;14.70;99.90;;;;;;5415491;26;20065;-47
2024/04/14 02:37:07;;;;;;;6.72;1.40;;;14.70;99.90;;;;;;5414968;26;20004;-48
2024/04/14 02:39:33;;;;;;;3.40;1.08;;;14.70;99.90;;;;;;5415520;26;20006;-46
2024/04/14 02:41:59;;;;;;;4.82;1.45;;;14.60;99.90;;;;;;5415532;26;20403;-47
2024/04/14 02:44:25;;;;;;;6.25;1.52;;;14.50;99.90;;;;;;5415526;26;19996;-47
2024/04/14 02:46:51;;;;;;;5.65;1.45;;;14.50;99.90;;;;;;5415397;26;19995;-51
2024/04/14 02:49:17;;;;;;;2.50;1.15;;;14.40;99.90;;;;;;5413852;26;19995;-49
2024/04/14 02:51:44;;;;;;;5.97;1.30;;;14.40;99.90;;;;;;5415351;26;20067;-51
2024/04/14 02:54:10;;;;;;;7.65;1.60;;;14.40;99.90;;;;;;5415068;26;20007;-48
2024/04/14 02:56:36;;;;;;;4.15;1.23;;;14.40;99.90;;;;;;5415153;26;20003;-51
2024/04/14 02:59:02;;;;;;;7.32;1.17;;;14.30;99.90;;;;;;5413691;26;19991;-49
2024/04/14 03:01:29;;;;;;;3.08;1.30;;;14.30;99.90;;;;;;5414995;26;20562;-52
2024/04/14 03:03:55;;;;;;;7.05;1.45;;;14.20;99.90;;;;;;5416467;26;20402;-48
2024/04/14 03:06:21;;;;;;;5.35;1.60;;;14.20;99.90;;;;;;5418384;26;20065;-47
2024/04/14 03:08:47;;;;;;;5.57;1.73;;;14.20;99.90;;;;;;5416138;26;20456;-50
2024/04/14 03:11:13;;;;;;;9.02;1.92;;;14.10;99.90;;;;;;5418462;26;19992;-49
2024/04/14 03:13:39;;;;;;;3.00;1.20;;;14.00;99.90;;;;;;5418466;26;19992;-47
2024/04/14 03:16:06;;;;;;;6.15;1.63;;;14.00;99.90;;;;;;5418485;26;20341;-50
2024/04/14 03:18:32;;;;;;;7.55;1.58;;;14.10;99.90;;;;;;5417568;26;19996;-49
2024/04/14 03:21:00;;;;;;;4.32;1.55;;;14.10;99.90;;;;;;5417823;26;19995;-53
2024/04/14 03:23:27;;;;;;;4.32;1.50;;;14.10;99.90;;;;;;5418319;26;19991;-50
2024/04/14 03:25:54;;;;;;;5.03;1.60;;;14.10;99.90;;;;;;5417378;26;20092;-51
2024/04/14 03:28:24;;;;;;;4.88;1.60;;;14.10;99.90;;;;;;5415684;26;20041;-48
2024/04/14 03:30:51;;;;;;;4.57;1.77;;;14.10;99.90;;;;;;5418424;26;20045;-48
2024/04/14 03:33:17;;;;;;;8.15;1.77;;;14.10;99.90;;;;;;5418098;26;20011;-47
2024/04/14 03:35:43;;;;;;;7.18;2.03;;;14.10;99.90;;;;;;5418045;26;20321;-48
2024/04/14 03:38:09;;;;;;;5.63;1.77;;;14.20;99.90;;;;;;5417318;26;19999;-46
2024/04/14 03:40:36;;;;;;;6.47;1.90;;;14.20;99.90;;;;;;5418076;26;20015;-49
2024/04/14 03:43:02;;;;;;;4.72;1.73;;;14.10;99.90;;;;;;5418052;26;20069;-46
2024/04/14 03:45:28;;;;;;;6.10;2.22;;;14.10;99.90;;;;;;5417636;26;20064;-51
2024/04/14 03:47:55;;;;;;;7.95;1.90;;;14.00;99.90;;;;;;5417299;26;19995;-47
2024/04/14 03:50:21;;;;;;;10.52;2.22;;;14.00;99.90;;;;;;5417705;26;19999;-49
2024/04/14 03:52:47;;;;;;;6.57;1.95;;;14.00;99.90;;;;;;5418164;26;20057;-48
2024/04/14 03:55:14;;;;;;;7.03;2.00;;;14.00;99.90;;;;;;5418081;26;20064;-49
2024/04/14 03:57:40;;;;;;;6.78;2.25;;;13.90;99.90;;;;;;5417099;26;20320;-49
2024/04/14 04:00:07;;;;;;;7.28;1.92;;;14.00;99.90;;;;;;5417798;26;20064;-50
2024/04/14 04:02:40;;;;;;;7.85;1.95;;;13.90;99.90;;;;;;5417879;26;20003;-50
2024/04/14 04:05:08;;;;;;;6.25;1.95;;;13.80;99.90;;;;;;5417712;26;20510;-49
2024/04/14 04:07:34;;;;;;;4.32;1.80;;;13.80;99.90;;;;;;5416947;26;19988;-51
2024/04/14 04:10:00;;;;;;;7.13;2.03;;;13.80;99.90;;;;;;5417477;26;20004;-50
2024/04/14 04:12:26;;;;;;;7.88;2.10;;;13.80;99.90;;;;;;5417630;26;19992;-49
2024/04/14 04:14:52;;;;;;;6.00;2.05;;;13.90;99.90;;;;;;5417477;26;20392;-51
2024/04/14 04:17:19;;;;;;;6.45;1.98;;;13.80;99.90;;;;;;5416697;26;19991;-50
2024/04/14 04:19:45;;;;;;;8.82;2.55;;;13.80;99.90;;;;;;5416722;26;19996;-51
2024/04/14 04:22:11;;;;;;;8.55;2.28;;;13.80;99.90;;;;;;5415562;26;19995;-51
2024/04/14 04:24:37;;;;;;;9.77;2.30;;;13.70;99.90;;;;;;5417419;26;19992;-51
2024/04/14 04:27:03;;;;;;;7.20;2.42;;;13.70;99.90;;;;;;5417506;26;20065;-50
2024/04/14 04:29:29;;;;;;;7.40;2.03;;;13.60;99.90;;;;;;5416451;26;20060;-51
2024/04/14 04:31:55;;;;;;;4.25;1.80;;;13.60;99.90;;;;;;5417352;26;20070;-48
2024/04/14 04:34:22;;;;;;;5.57;2.03;;;13.60;99.90;;;;;;5417084;26;20000;-48
2024/04/14 04:36:51;;;;;;;8.25;2.00;;;13.60;99.90;;;;;;5417188;26;20069;-49
2024/04/14 04:39:18;;;;;;;8.30;2.40;;;13.50;99.90;;;;;;5416425;26;19995;-48
2024/04/14 04:41:44;;;;;;;8.63;3.22;;;13.50;99.90;;;;;;5415456;26;20049;-48
2024/04/14 04:44:13;;;;;;;9.68;2.80;;;13.50;99.90;;;;;;5417412;26;19996;-49
2024/04/14 04:46:39;;;;;;;10.00;2.70;;;13.50;99.90;;;;;;5417118;26;20072;-50
2024/04/14 04:49:05;;;;;;;9.10;2.50;;;13.40;99.90;;;;;;5416337;26;20000;-48
2024/04/14 04:51:31;;;;;;;8.60;2.65;;;13.40;99.90;;;;;;5416976;26;20448;-50
2024/04/14 04:53:57;;;;;;;11.80;2.58;;;13.40;99.90;;;;;;5416251;26;20383;-49
2024/04/14 04:56:23;;;;;;;14.40;2.70;;;13.30;99.90;;;;;;5417056;26;20007;-47
2024/04/14 04:58:49;;;;;;;8.13;2.80;;;13.30;99.90;;;;;;5416202;26;19988;-47
2024/04/14 05:01:15;;;;;;;7.88;2.55;;;13.30;99.90;;;;;;5417105;26;20325;-51
2024/04/14 05:03:41;;;;;;;11.35;2.47;;;13.40;99.90;;;;;;5417043;26;19996;-51
2024/04/14 05:06:07;;;;;;;11.60;2.80;;;13.40;99.90;;;;;;5416879;26;20006;-49
2024/04/14 05:08:33;;;;;;;6.68;2.58;;;13.40;99.90;;;;;;5415828;26;20032;-46
2024/04/14 05:11:00;;;;;;;8.82;2.60;;;13.40;99.90;;;;;;5416794;26;20068;-49
2024/04/14 05:13:30;;;;;;;9.77;2.78;;;13.40;99.90;;;;;;5416888;26;20027;-51
2024/04/14 05:15:56;;;;;;;10.70;3.63;;;13.40;99.90;;;;;;5416770;26;19996;-48
2024/04/14 05:18:22;;;;;;;7.65;2.38;;;13.40;99.90;;;;;;5415782;26;19996;-49
2024/04/14 05:20:48;;;;;;;9.85;2.85;;;13.40;99.90;;;;;;5416669;26;20064;-50
2024/04/14 05:23:14;;;;;;;8.30;2.83;;;13.30;99.90;;;;;;5416977;26;20078;-48
2024/04/14 05:25:40;;;;;;;11.70;3.42;;;13.30;99.90;;;;;;5416348;26;20068;-50
2024/04/14 05:28:07;;;;;;;9.77;2.90;;;13.40;99.90;;;;;;5416271;26;20064;-51
2024/04/14 05:30:35;;;;;;;8.95;2.78;;;13.40;99.90;;;;;;5416699;26;20064;-50
2024/04/14 05:33:01;;;;;;;8.45;2.50;;;13.40;99.90;;;;;;5416900;26;20443;-49
2024/04/14 05:35:27;;;;;;;11.00;2.67;;;13.40;99.90;;;;;;5416348;26;20394;-50
2024/04/14 05:37:53;;;;;;;8.27;2.72;;;13.40;99.90;;;;;;5415706;26;19995;-46
2024/04/14 05:40:19;;;;;;;13.00;3.67;;;13.50;99.90;;;;;;5416393;26;19991;-48
2024/04/14 05:42:45;;;;;;;8.77;2.65;;;13.60;99.90;;;;;;5416496;26;20398;-47
2024/04/14 05:45:11;;;;;;;12.02;2.85;;;13.60;99.90;;;;;;5416566;26;20441;-49
2024/04/14 05:47:37;;;;;;;10.18;2.75;;;13.50;99.90;;;;;;5415596;26;20064;-51
2024/04/14 05:50:03;;;;;;;7.20;2.60;;;13.50;99.90;;;;;;5414769;26;20015;-51
2024/04/14 05:52:29;;;;;;;8.38;2.80;;;13.50;99.90;;;;;;5416352;26;20379;-52
2024/04/14 05:54:55;;;;;;;8.90;3.05;;;13.40;99.90;;;;;;5416304;26;19995;-52
2024/04/14 05:57:22;;;;;;;10.80;3.40;;;13.40;99.90;;;;;;5384170;26;19991;-49
2024/04/14 05:59:48;;;;;;;9.45;3.00;;;13.40;99.90;;;;;;5416126;26;20010;-50
2024/04/14 06:02:15;;;;;;;10.65;3.17;;;13.50;99.90;;;;;;5416165;26;19995;-52
2024/04/14 06:04:41;;;;;;;8.75;2.90;;;13.60;99.90;;;;;;5415991;26;20064;-52
2024/04/14 06:07:08;;;;;;;10.27;2.80;;;13.60;99.90;;;;;;5415440;26;20014;-51
2024/04/14 06:09:34;;;;;;;9.35;2.90;;;13.60;99.90;;;;;;5416121;26;19996;-51
2024/04/14 06:12:00;;;;;;;9.90;2.97;;;13.60;99.90;;;;;;5415921;26;20410;-49
2024/04/14 06:14:26;;;;;;;10.57;2.85;;;13.50;99.90;;;;;;5415779;26;19996;-50
2024/04/14 06:16:52;;;;;;;10.52;3.15;;;13.50;99.90;;;;;;5415873;26;19995;-49
2024/04/14 06:19:20;;;;;;;13.68;3.22;;;13.50;99.90;;;;;;5414297;26;20064;-51
2024/04/14 06:21:46;;;;;;;10.75;2.92;;;13.60;99.90;;;;;;5415831;26;20358;-51
2024/04/14 06:24:12;;;;;;;10.70;3.03;;;13.60;99.90;;;;;;5414208;26;20007;-51
2024/04/14 06:26:38;;;;;;;10.38;3.45;;;13.60;99.90;;;;;;5415791;26;19995;-52
2024/04/14 06:29:04;;;;;;;14.70;3.25;;;13.70;99.90;;;;;;5414857;26;20068;-49
2024/04/14 06:31:30;;;;;;;15.90;4.03;;;13.60;99.90;;;;;;5415516;26;20069;-52
2024/04/14 06:33:56;;;;;;;10.55;2.67;;;13.60;99.90;;;;;;5415499;26;19995;-51
2024/04/14 06:36:22;;;;;;;8.80;2.97;;;13.70;99.90;;;;;;5415571;26;20406;-49
2024/04/14 06:38:48;;;;;;;12.80;3.38;;;13.80;99.90;;;;;;5412993;26;20339;-50
2024/04/14 06:41:14;;;;;;;14.18;3.55;;;13.80;99.90;;;;;;5415545;26;20027;-52
2024/04/14 06:43:41;;;;;;;7.50;3.13;;;13.90;99.90;;;;;;5415470;26;20015;-51
2024/04/14 06:46:07;;;;;;;15.00;3.10;;;13.90;99.90;;;;;;5415591;26;19988;-50
2024/04/14 06:48:33;;;;;;;13.35;3.42;;;13.90;99.90;;;;;;5414497;26;19991;-51
2024/04/14 06:50:59;;;;;;;9.60;3.47;;;13.90;99.90;;;;;;5415266;26;19996;-47
2024/04/14 06:53:25;;;;;;;8.70;3.45;;;13.90;99.90;;;;;;5415505;26;20509;-52
2024/04/14 06:55:51;;;;;;;13.27;3.42;;;14.00;99.90;;;;;;5415141;26;19992;-51
2024/04/14 06:58:17;;;;;;;12.13;3.83;;;14.10;99.90;;;;;;5414655;26;20003;-52
2024/04/14 07:00:43;;;;;;;14.73;3.33;;;14.10;99.90;;;;;;5415031;26;20437;-50
2024/04/14 07:03:11;;;;;;;9.88;3.38;;;14.10;99.90;;;;;;5414961;26;19996;-46
2024/04/14 07:05:38;;;;;;;11.38;3.08;;;14.00;99.90;;;;;;5415233;26;20067;-50
2024/04/14 07:08:04;;;;;;;9.95;3.03;;;14.10;99.90;;;;;;5414259;26;19991;-48
2024/04/14 07:10:30;;;;;;;12.45;2.72;;;14.20;99.90;;;;;;5413457;26;20086;-48
2024/04/14 07:12:56;;;;;;;11.45;3.20;;;14.20;99.90;;;;;;5415410;26;20432;-50
2024/04/14 07:15:22;;;;;;;7.63;2.67;;;14.20;99.90;;;;;;5414838;26;19992;-49
2024/04/14 07:17:48;;;;;;;10.00;3.35;;;14.30;99.90;;;;;;5414166;26;19992;-51
2024/04/14 07:20:14;;;;;;;10.95;2.70;;;14.30;99.90;;;;;;5414720;26;19991;-53
2024/04/14 07:22:40;;;;;;;10.75;3.25;;;14.40;99.90;;;;;;5414936;26;20061;-51
2024/04/14 07:25:06;;;;;;;7.30;2.67;;;14.60;99.90;;;;;;5414810;26;20069;-48
2024/04/14 07:27:33;;;;;;;10.27;3.17;;;14.60;99.90;;;;;;5413870;26;19992;-49
2024/04/14 07:29:59;;;;;;;11.35;2.70;;;14.60;99.90;;;;;;5414444;26;20027;-51
2024/04/14 07:32:25;;;;;;;8.95;2.53;;;14.60;99.90;;;;;;5414499;26;19992;-47
2024/04/14 07:34:51;;;;;;;10.85;3.10;;;14.50;99.90;;;;;;5412673;26;19991;-46
2024/04/14 07:37:17;;;;;;;10.63;2.58;;;14.50;99.90;;;;;;5413883;26;19991;-49
2024/04/14 07:39:43;;;;;;;8.02;2.70;;;14.40;99.90;;;;;;5414298;26;19991;-50
2024/04/14 07:42:10;;;;;;;10.07;2.80;;;14.40;99.90;;;;;;5414498;26;20003;-51
2024/04/14 07:44:36;;;;;;;12.27;2.97;;;14.40;99.90;;;;;;5414164;26;19992;-52
2024/04/14 07:47:02;;;;;;;9.95;2.80;;;14.50;99.90;;;;;;5414288;26;20000;-52
2024/04/14 07:49:28;;;;;;;10.38;2.92;;;14.60;99.90;;;;;;5383653;26;20306;-49
2024/04/14 07:51:54;;;;;;;7.43;2.50;;;14.70;99.90;;;;;;5417992;26;20440;-47
2024/04/14 07:54:20;;;;;;;8.98;2.88;;;14.80;99.90;;;;;;5417901;26;20045;-51
2024/04/14 07:56:46;;;;;;;11.45;3.03;;;14.90;99.90;;;;;;5417886;26;19995;-52
2024/04/14 07:59:12;;;;;;;12.55;2.60;;;15.00;99.90;;;;;;5416883;26;20068;-49
2024/04/14 08:01:38;;;;;;;14.52;3.50;;;15.00;99.90;;;;;;5417699;26;20341;-49
2024/04/14 08:04:04;;;;;;;14.07;2.92;;;15.10;99.90;;;;;;5417899;26;20499;-50
2024/04/14 08:06:31;;;;;;;10.23;2.92;;;15.10;99.90;;;;;;5415875;26;20006;-50
2024/04/14 08:08:57;;;;;;;11.48;2.97;;;15.10;99.90;;;;;;5417099;26;20391;-51
2024/04/14 08:11:25;;;;;;;8.93;2.97;;;15.20;99.90;;;;;;5417615;26;19991;-48
2024/04/14 08:13:51;;;;;;;8.25;2.60;;;15.20;99.90;;;;;;5417443;26;20068;-51
2024/04/14 08:16:17;;;;;;;10.50;3.15;;;15.20;99.90;;;;;;5417495;26;19995;-52
2024/04/14 08:18:46;;;;;;;9.48;2.88;;;15.30;99.90;;;;;;5416831;26;20065;-50
2024/04/14 08:21:12;;;;;;;13.57;2.78;;;15.40;99.90;;;;;;5417753;26;20038;-47
2024/04/14 08:23:38;;;;;;;11.73;3.17;;;15.50;99.90;;;;;;5417729;26;20007;-48
2024/04/14 08:26:06;;;;;;;9.48;2.97;;;15.60;99.90;;;;;;5417360;26;20071;-51
2024/04/14 08:28:32;;;;;;;9.32;3.00;;;15.40;99.90;;;;;;5416582;26;19996;-46
2024/04/14 08:30:58;;;;;;;9.90;2.72;;;15.30;99.90;;;;;;5417580;26;19995;-48
2024/04/14 08:33:24;;;;;;;8.52;2.55;;;15.30;99.90;;;;;;5417461;26;20046;-47
2024/04/14 08:35:50;;;;;;;9.23;2.53;;;15.30;99.90;;;;;;5417222;26;20453;-50
2024/04/14 08:38:17;;;;;;;10.45;2.80;;;15.20;99.90;;;;;;5416714;26;20046;-47
2024/04/14 08:40:55;;;;;;;9.63;2.90;;;15.20;99.90;;;;;;5417189;26;19995;-48
2024/04/14 08:43:22;;;;;;;11.60;2.58;;;15.20;99.90;;;;;;5417255;26;19999;-47
2024/04/14 08:45:50;;;;;;;7.35;2.15;;;15.50;99.90;;;;;;5417619;26;20522;-50
2024/04/14 08:48:18;;;;;;;5.38;1.92;;;15.60;99.90;;;;;;5416603;26;20014;-46
2024/04/14 08:50:46;;;;;;;9.10;2.80;;;15.70;99.90;;;;;;5417093;26;20328;-52
2024/04/14 08:53:15;;;;;;;10.10;2.17;;;15.80;99.90;;;;;;5417282;26;20384;-51
2024/04/14 08:55:44;;;;;;;;;;;15.80;99.90;;;;;;5418195;26;20069;-48
2024/04/14 08:58:12;;;;;;;11.25;2.30;;;15.90;99.90;;;;;;5416579;26;19932;-49
2024/04/14 09:00:38;;;;;;;6.18;2.00;;;15.90;99.90;;;;;;5415922;26;20480;-52
2024/04/14 09:03:05;;;;;;;7.15;2.10;;;15.90;99.90;;;;;;5416814;26;19999;-50
2024/04/14 09:05:38;;;;;;;12.25;3.28;;;15.90;99.90;;;;;;5416735;26;20072;-50
2024/04/14 09:08:04;;;;;;;6.15;2.42;;;15.80;99.90;;;;;;5416188;26;20387;-51
2024/04/14 09:10:30;;;;;;;9.23;2.00;;;15.90;99.90;;;;;;5413940;26;20258;-47
2024/04/14 09:12:57;;;;;;;7.60;2.72;;;16.10;99.90;;;;;;5416830;26;19992;-53
2024/04/14 09:15:23;;;;;;;11.70;2.20;;;16.20;99.90;;;;;;5416787;26;20365;-50
2024/04/14 09:17:49;;;;;;;7.13;1.90;;;16.30;99.90;;;;;;5416030;26;20572;-46
2024/04/14 09:20:17;;;;;;;8.15;2.10;;;16.40;99.90;;;;;;5416734;26;19996;-49
2024/04/14 09:22:44;;;;;;;10.68;1.90;;;16.70;99.90;;;;;;5416775;26;19992;-49
2024/04/14 09:25:12;;;;;;;5.65;2.33;;;17.10;99.90;;;;;;5416246;26;19992;-49
2024/04/14 09:27:38;;;;;;;12.32;2.47;;;17.10;99.90;;;;;;5415952;26;19991;-48
2024/04/14 09:30:18;;;;;;;6.93;2.05;;;17.20;99.90;;;;;;5416153;26;19995;-51
2024/04/14 09:32:44;;;;;;;7.43;1.90;;;17.30;99.90;;;;;;5416895;26;20058;-50
2024/04/14 09:35:12;;;;;;;8.45;1.75;;;17.50;99.90;;;;;;5416539;26;19995;-51
2024/04/14 09:37:38;;;;;;;5.70;1.83;;;17.80;99.90;;;;;;5415908;26;19995;-49
2024/04/14 09:40:09;;;;;;;9.20;1.67;;;17.90;99.80;;;;;;5415445;26;19991;-51
2024/04/14 09:42:36;;;;;;;15.95;5.93;;;18.00;99.90;;;;;;5416534;26;20003;-50
2024/04/14 09:45:03;;;;;;;12.43;4.50;;;18.30;99.50;;;;;;5415342;26;19991;-51
2024/04/14 09:47:30;;;;;;;5.88;1.48;;;18.70;99.50;;;;;;5415416;26;20007;-51
2024/04/14 09:49:56;;;;;;;5.15;1.35;;;18.90;98.00;;;;;;5416219;26;19996;-46
2024/04/14 09:52:23;;;;;;;5.40;1.48;;;19.20;96.90;;;;;;5416275;26;20326;-49
2024/04/14 09:54:51;;;;;;;7.60;1.73;;;19.20;96.90;;;;;;5416394;26;20068;-50
2024/04/14 09:57:17;;;;;;;7.90;1.73;;;19.20;97.40;;;;;;5415969;26;20448;-52
2024/04/14 09:59:44;;;;;;;7.80;1.85;;;19.50;95.60;;;;;;5415795;26;20398;-49
2024/04/14 10:02:27;;;;;;;6.10;1.65;;;19.50;95.90;;;;;;5415713;26;20019;-50
2024/04/14 10:04:55;;;;;;;6.10;1.40;;;19.70;95.10;;;;;;5414693;26;20007;-50
2024/04/14 10:07:22;;;;;;;4.55;1.70;;;19.60;95.30;;;;;;5413709;26;19988;-51
2024/04/14 10:09:49;;;;;;;6.63;1.45;;;19.50;94.40;;;;;;5416214;26;19991;-49
2024/04/14 10:12:21;;;;;;;5.97;1.63;;;19.80;94.00;;;;;;5415653;26;20330;-52
2024/04/14 10:14:48;;;;;;;5.35;1.00;;;20.10;92.40;;;;;;5415338;26;19991;-52
2024/04/14 10:17:17;;;;;;;5.85;1.05;;;20.60;92.10;;;;;;5414463;26;20003;-51
2024/04/14 10:20:03;;;;;;;5.97;1.40;;;21.00;92.00;;;;;;5416015;26;20006;-47
2024/04/14 10:22:35;;;;;;;5.78;1.45;;;21.10;91.30;;;;;;5415949;26;20002;-51
2024/04/14 10:25:02;;;;;;;4.38;1.08;;;21.30;90.70;;;;;;5415718;26;19995;-52
2024/04/14 10:27:33;;;;;;;3.95;1.23;;;21.20;85.90;;;;;;5415169;26;20073;-48
2024/04/14 10:30:04;;;;;;;5.35;0.95;;;21.20;88.10;;;;;;5415570;26;20489;-50
2024/04/14 10:32:30;;;;;;;3.75;1.02;;;21.40;86.80;;;;;;5415956;26;20006;-48
2024/04/14 10:34:56;;;;;;;7.15;1.58;;;21.60;84.80;;;;;;5415620;26;19999;-51
2024/04/14 10:37:27;;;;;;;5.80;1.20;;;21.70;87.40;;;;;;5415214;26;20000;-50
2024/04/14 10:39:55;;;;;;;5.30;1.00;;;21.90;87.60;;;;;;5415499;26;20344;-51
2024/04/14 10:42:22;;;;;;;7.88;1.25;;;21.50;87.10;;;;;;5415592;26;20011;-51
2024/04/14 10:44:48;;;;;;;7.30;1.38;;;21.70;86.30;;;;;;5415924;26;19996;-51
2024/04/14 10:47:18;;;;;;;5.68;1.38;;;21.40;87.60;;;;;;5414887;26;20647;-52
2024/04/14 10:49:46;;;;;;;3.42;1.10;;;21.30;89.80;;;;;;5415334;26;20010;-50
2024/04/14 10:52:12;;;;;;;4.40;1.15;;;20.70;87.60;;;;;;5415242;26;19995;-50
2024/04/14 10:54:40;;;;;;;6.40;1.58;;;20.20;89.60;;;;;;5415482;26;19996;-52
2024/04/14 10:57:10;;;;;;;;;;;19.70;90.20;;;;;;5415928;26;20006;-52
2024/04/14 10:59:38;;;;;;;5.70;1.45;;;19.40;90.60;;;;;;5415401;26;20363;-51
2024/04/14 11:02:04;;;;;;;3.80;1.00;;;19.40;90.50;;;;;;5413189;26;20011;-50
2024/04/14 11:04:32;;;;;;;6.63;1.00;;;19.60;91.00;;;;;;5415203;26;19996;-51
2024/04/14 11:06:59;;;;;;;4.00;1.15;;;20.20;89.40;;;;;;5415068;26;20076;-51
2024/04/14 11:09:26;;;;;;;4.47;1.05;;;20.60;86.40;;;;;;5414205;26;19999;-51
2024/04/14 11:11:52;;;;;;;3.80;1.15;;;20.70;85.60;;;;;;5414927;26;20073;-50
2024/04/14 11:14:21;;;;;;;4.93;1.17;;;20.30;87.30;;;;;;5415091;26;20414;-51
2024/04/14 11:16:48;;;;;;;7.50;1.65;;;20.10;85.20;;;;;;5414967;26;20039;-51
2024/04/14 11:19:14;;;;;;;6.85;1.70;;;19.70;88.50;;;;;;5414283;26;20000;-50
2024/04/14 11:21:40;;;;;;;9.00;1.40;;;19.30;90.50;;;;;;5414722;26;19995;-50
2024/04/14 11:24:10;;;;;;;4.93;1.30;;;18.90;90.50;;;;;;5415472;26;20448;-51
2024/04/14 11:26:38;;;;;;;6.15;1.63;;;18.60;89.50;;;;;;5418153;26;19995;-49
2024/04/14 11:29:04;;;;;;;6.63;1.42;;;18.30;90.90;;;;;;5415586;26;20007;-50
2024/04/14 11:31:31;;;;;;;5.18;1.00;;;18.30;91.20;;;;;;5418246;26;20008;-47
2024/04/14 11:33:59;;;;;;;6.78;1.35;;;18.50;90.00;;;;;;5418227;26;20006;-50
2024/04/14 11:36:32;;;;;;;3.35;1.00;;;18.30;90.30;;;;;;5418363;26;20007;-50
2024/04/14 11:39:00;;;;;;;4.88;1.00;;;18.20;91.00;;;;;;5414623;26;20011;-50
2024/04/14 11:41:26;;;;;;;3.08;0.90;;;18.30;91.70;;;;;;5416506;26;20068;-51
2024/04/14 11:43:52;;;;;;;6.68;1.20;;;18.30;91.10;;;;;;5416591;26;19992;-51
2024/04/14 11:46:18;;;;;;;5.05;1.20;;;18.20;90.50;;;;;;5418030;26;20065;-48
2024/04/14 11:48:45;;;;;;;6.38;1.10;;;18.10;90.80;;;;;;5417238;26;19991;-46
2024/04/14 11:51:12;;;;;;;5.97;0.95;;;18.30;91.60;;;;;;5416615;26;19995;-50
2024/04/14 11:53:38;;;;;;;4.75;1.30;;;18.50;90.70;;;;;;5418305;26;20002;-49
2024/04/14 11:56:04;;;;;;;5.60;1.20;;;18.80;90.20;;;;;;5417831;26;20436;-49
2024/04/14 11:58:30;;;;;;;6.45;1.08;;;19.00;90.30;;;;;;5417199;26;20065;-52
2024/04/14 12:00:56;;;;;;;5.72;1.20;;;19.20;91.20;;;;;;5417800;26;20004;-48
2024/04/14 12:03:22;;;;;;;7.07;1.08;;;19.20;90.30;;;;;;5417907;26;20065;-51
2024/04/14 12:05:50;;;;;;;6.03;1.30;;;19.20;88.60;;;;;;5416006;26;19995;-50
2024/04/14 12:08:17;;;;;;;4.45;1.13;;;18.90;90.00;;;;;;5417119;26;20065;-51
2024/04/14 12:10:43;;;;;;;3.30;1.02;;;18.70;90.40;;;;;;5417227;26;20068;-51
2024/04/14 12:13:12;;;;;;;4.20;0.90;;;18.60;90.30;;;;;;5417780;26;19992;-49
2024/04/14 12:15:37;;;;;;;5.60;1.10;;;18.90;89.00;;;;;;5417284;26;19995;-46
2024/04/14 12:18:04;;;;;;;4.22;1.05;;;19.00;87.30;;;;;;5416830;26;20073;-50
2024/04/14 12:20:30;;;;;;;4.65;0.95;;;19.00;87.30;;;;;;5417533;26;19999;-51
2024/04/14 12:22:58;;;;;;;4.22;1.20;;;18.90;90.10;;;;;;5417720;26;20325;-49
2024/04/14 12:25:24;;;;;;;5.93;1.20;;;18.70;89.40;;;;;;5417801;26;19995;-50
2024/04/14 12:27:50;;;;;;;7.82;1.02;;;18.50;90.00;;;;;;5416938;26;19999;-52
2024/04/14 12:30:16;;;;;;;3.55;1.30;;;18.40;89.10;;;;;;5417761;26;20045;-51
2024/04/14 12:32:42;;;;;;;5.65;1.80;;;18.40;89.70;;;;;;5417788;26;20045;-51
2024/04/14 12:35:08;;;;;;;8.38;1.52;;;18.40;89.60;;;;;;5416434;26;19995;-50
2024/04/14 12:37:34;;;;;;;4.65;1.15;;;18.50;89.10;;;;;;5416409;26;20068;-51
2024/04/14 12:40:00;;;;;;;6.03;1.33;;;18.30;90.20;;;;;;5417135;26;19995;-50
2024/04/14 12:42:26;;;;;;;7.75;1.13;;;18.50;89.20;;;;;;5417271;26;20073;-50